createdAt,value
2019-05-18T00:02:14.714Z,4.76
2019-05-18T00:07:16.959Z,4.55
2019-05-18T00:12:19.234Z,4.42
2019-05-18T00:17:25.280Z,4.85
2019-05-18T00:22:25.524Z,4.87
2019-05-18T00:27:27.829Z,4.47
2019-05-18T00:32:30.099Z,4.33
2019-05-18T00:37:32.371Z,4.50
2019-05-18T00:42:34.644Z,4.72
2019-05-18T00:47:41.516Z,5.00
2019-05-18T00:52:41.300Z,4.47
2019-05-18T00:57:43.560Z,4.53
2019-05-18T01:02:45.822Z,4.92
2019-05-18T01:07:48.125Z,5.03
2019-05-18T01:12:50.446Z,5.08
2019-05-18T01:17:57.363Z,4.67
2019-05-18T01:22:56.718Z,4.70
2019-05-18T01:27:58.976Z,4.77
2019-05-18T01:33:01.273Z,4.40
2019-05-18T01:38:03.665Z,5.04
2019-05-18T01:43:05.976Z,4.90
2019-05-18T01:48:14.283Z,4.60
2019-05-18T01:53:12.276Z,4.73
2019-05-18T01:58:14.759Z,4.97
2019-05-18T02:03:17.039Z,4.40
2019-05-18T02:08:19.396Z,4.90
2019-05-18T02:13:21.654Z,4.90
2019-05-18T02:18:29.049Z,4.80
2019-05-18T02:23:27.967Z,4.87
2019-05-18T02:28:30.220Z,4.67
2019-05-18T02:33:32.521Z,4.57
2019-05-18T02:38:34.795Z,4.83
2019-05-18T02:43:37.301Z,4.67
2019-05-18T02:48:49.360Z,5.10
2019-05-18T02:53:43.672Z,5.27
2019-05-18T02:58:46.001Z,5.10
2019-05-18T03:03:48.688Z,4.40
2019-05-18T03:08:50.990Z,4.80
2019-05-18T03:13:53.317Z,5.00
2019-05-18T03:19:07.676Z,4.63
2019-05-18T03:23:59.639Z,4.63
2019-05-18T03:29:01.921Z,4.97
2019-05-18T03:34:04.201Z,4.80
2019-05-18T03:39:06.524Z,4.90
2019-05-18T03:44:08.835Z,5.10
2019-05-18T03:49:25.331Z,5.23
2019-05-18T03:54:15.285Z,5.00
2019-05-18T03:59:17.576Z,4.97
2019-05-18T04:04:20.239Z,5.27
2019-05-18T04:09:22.500Z,5.20
2019-05-18T04:14:24.791Z,5.27
2019-05-18T04:19:45.398Z,5.08
2019-05-18T04:24:36.394Z,5.07
2019-05-18T04:29:38.754Z,5.42
2019-05-18T04:34:41.020Z,5.30
2019-05-18T04:39:43.299Z,5.43
2019-05-18T04:44:45.592Z,5.67
2019-05-18T04:50:03.825Z,4.87
2019-05-18T04:54:52.129Z,5.43
2019-05-18T04:59:55.105Z,5.30
2019-05-18T05:04:57.374Z,4.83
2019-05-18T05:09:59.649Z,5.10
2019-05-18T05:15:01.927Z,5.50
2019-05-18T05:20:19.133Z,5.47
2019-05-18T05:25:14.559Z,5.50
2019-05-18T05:30:17.002Z,5.50
2019-05-18T05:35:19.356Z,5.65
2019-05-18T05:40:21.944Z,5.70
2019-05-18T05:45:24.266Z,5.40
2019-05-18T05:50:35.173Z,5.85
2019-05-18T05:55:30.616Z,5.70
2019-05-18T06:00:32.885Z,5.33
2019-05-18T06:05:35.185Z,5.50
2019-05-18T06:10:37.460Z,5.60
2019-05-18T06:15:39.711Z,5.35
2019-05-18T06:20:50.883Z,5.17
2019-05-18T06:25:46.581Z,5.40
2019-05-18T06:30:48.876Z,5.65
2019-05-18T06:35:51.179Z,5.47
2019-05-18T06:40:53.474Z,4.58
2019-05-18T06:45:55.760Z,4.92
2019-05-18T06:51:06.725Z,4.90
2019-05-18T06:56:02.577Z,4.45
2019-05-18T07:01:04.909Z,4.53
2019-05-18T07:06:07.306Z,4.10
2019-05-18T07:11:09.606Z,4.37
2019-05-18T07:16:11.949Z,4.17
2019-05-18T07:21:22.025Z,4.15
2019-05-18T07:26:18.564Z,4.45
2019-05-18T07:31:20.910Z,4.40
2019-05-18T07:36:23.201Z,4.20
2019-05-18T07:41:25.585Z,4.53
2019-05-18T07:46:27.902Z,4.45
2019-05-18T07:51:36.936Z,5.17
2019-05-18T07:56:34.514Z,4.25
2019-05-18T08:01:36.993Z,4.15
2019-05-18T08:06:39.256Z,5.10
2019-05-18T08:11:41.851Z,4.50
2019-05-18T08:16:44.212Z,4.33
2019-05-18T08:21:53.339Z,4.90
2019-05-18T08:26:50.542Z,4.95
2019-05-18T08:31:52.900Z,5.08
2019-05-18T08:36:55.294Z,5.12
2019-05-18T08:41:57.561Z,5.53
2019-05-18T08:46:59.938Z,5.15
2019-05-18T08:52:08.167Z,5.55
2019-05-18T08:57:06.361Z,4.80
2019-05-18T09:02:08.630Z,5.30
2019-05-18T09:07:10.977Z,5.15
2019-05-18T09:12:13.806Z,4.60
2019-05-18T09:17:16.076Z,5.20
2019-05-18T09:22:23.341Z,5.92
2019-05-18T09:27:23.184Z,5.33
2019-05-18T09:32:25.466Z,5.60
2019-05-18T09:37:27.757Z,5.90
2019-05-18T09:42:30.040Z,7.05
2019-05-18T09:47:32.377Z,6.45
2019-05-18T09:52:44.702Z,7.28
2019-05-18T09:57:39.083Z,7.30
2019-05-18T10:02:41.439Z,7.03
2019-05-18T10:07:43.756Z,6.83
2019-05-18T10:12:46.741Z,7.00
2019-05-18T10:17:49.693Z,5.08
2019-05-18T10:23:04.160Z,6.20
2019-05-18T10:27:56.019Z,5.78
2019-05-18T10:32:58.329Z,5.83
2019-05-18T10:38:00.602Z,5.87
2019-05-18T10:43:02.955Z,6.20
2019-05-18T10:48:05.423Z,5.60
2019-05-18T10:53:07.911Z,4.72
2019-05-18T10:58:10.190Z,4.87
2019-05-18T11:03:12.604Z,5.50
2019-05-18T11:08:14.957Z,5.45
2019-05-18T11:13:17.484Z,5.15
2019-05-18T11:18:19.892Z,5.08
2019-05-18T11:23:22.206Z,6.22
2019-05-18T11:28:24.475Z,6.53
2019-05-18T11:33:27.151Z,5.10
2019-05-18T11:38:29.440Z,6.37
2019-05-18T11:43:31.730Z,5.03
2019-05-18T11:48:34.015Z,5.35
2019-05-18T11:53:36.330Z,5.00
2019-05-18T11:58:38.621Z,5.15
2019-05-18T12:03:41.000Z,4.53
2019-05-18T12:08:43.377Z,4.20
2019-05-18T12:13:45.680Z,5.15
2019-05-18T12:18:47.979Z,4.30
2019-05-18T12:23:50.321Z,4.70
2019-05-18T12:28:52.916Z,4.10
2019-05-18T12:33:55.212Z,4.78
2019-05-18T12:38:57.730Z,4.15
2019-05-18T12:44:00.024Z,3.90
2019-05-18T12:49:02.518Z,4.00
2019-05-18T12:54:04.844Z,3.58
2019-05-18T12:59:07.223Z,3.80
2019-05-18T13:04:09.516Z,2.58
2019-05-18T13:09:11.825Z,2.55
2019-05-18T13:14:14.463Z,2.60
2019-05-18T13:19:16.795Z,3.20
2019-05-18T13:24:19.066Z,2.98
2019-05-18T13:29:21.423Z,3.77
2019-05-18T13:34:23.738Z,3.30
2019-05-18T13:39:26.031Z,2.35
2019-05-18T13:44:28.333Z,2.70
2019-05-18T13:49:30.606Z,2.50
2019-05-18T13:54:32.902Z,3.02
2019-05-18T13:59:35.164Z,2.95
2019-05-18T14:04:37.435Z,2.80
2019-05-18T14:09:39.808Z,2.80
2019-05-18T14:14:42.084Z,3.40
2019-05-18T14:19:44.449Z,2.92
2019-05-18T14:24:46.739Z,2.87
2019-05-18T14:29:49.010Z,2.67
2019-05-18T14:34:51.448Z,2.60
2019-05-18T14:39:53.825Z,2.60
2019-05-18T14:44:56.121Z,2.90
2019-05-18T14:49:58.394Z,2.90
2019-05-18T14:55:00.738Z,2.42
2019-05-18T15:00:03.765Z,2.67
2019-05-18T15:05:07.228Z,2.58
2019-05-18T15:10:09.785Z,5.17
2019-05-18T15:15:12.145Z,5.20
2019-05-18T15:20:14.708Z,5.12
2019-05-18T15:25:17.186Z,5.80
2019-05-18T15:30:19.656Z,4.37
2019-05-18T15:35:21.923Z,5.05
2019-05-18T15:40:24.200Z,3.45
2019-05-18T15:45:26.497Z,2.70
2019-05-18T15:50:28.843Z,3.60
2019-05-18T15:55:31.169Z,3.55
2019-05-18T16:00:33.594Z,3.27
2019-05-18T16:05:36.042Z,3.80
2019-05-18T16:10:38.383Z,3.33
2019-05-18T16:15:40.828Z,5.80
2019-05-18T16:20:43.166Z,4.08
2019-05-18T16:25:45.444Z,3.90
2019-05-18T16:30:47.789Z,4.40
2019-05-18T16:35:50.105Z,2.70
2019-05-18T16:40:52.482Z,3.30
2019-05-18T16:45:55.305Z,2.90
2019-05-18T16:50:57.730Z,2.90
2019-05-18T16:56:00.735Z,4.05
2019-05-18T17:01:04.123Z,3.70
2019-05-18T17:06:06.419Z,3.55
2019-05-18T17:11:08.940Z,3.22
2019-05-18T17:16:11.610Z,3.90
2019-05-18T17:21:13.963Z,3.62
2019-05-18T17:26:16.233Z,3.60
2019-05-18T17:31:18.523Z,3.40
2019-05-18T17:36:20.800Z,3.70
2019-05-18T17:41:23.120Z,3.55
2019-05-18T17:46:25.430Z,3.52
2019-05-18T17:51:27.690Z,3.40
2019-05-18T17:56:30.902Z,2.50
2019-05-18T18:01:34.245Z,2.67
2019-05-18T18:06:36.623Z,2.65
2019-05-18T18:11:38.984Z,2.40
2019-05-18T18:16:41.337Z,3.70
2019-05-18T18:21:43.835Z,2.52
2019-05-18T18:26:46.198Z,2.62
2019-05-18T18:31:48.521Z,2.30
2019-05-18T18:36:51.483Z,3.60
2019-05-18T18:41:54.853Z,3.30
2019-05-18T18:46:57.332Z,3.30
2019-05-18T18:51:59.628Z,2.93
2019-05-18T18:57:01.887Z,2.50
2019-05-18T19:02:04.370Z,2.70
2019-05-18T19:07:09.102Z,2.87
2019-05-18T19:12:10.848Z,2.77
2019-05-18T19:17:13.320Z,2.73
2019-05-18T19:22:15.607Z,3.72
2019-05-18T19:27:18.029Z,3.70
2019-05-18T19:32:20.691Z,3.80
2019-05-18T19:37:26.282Z,4.37
2019-05-18T19:42:27.968Z,4.28
2019-05-18T19:47:30.722Z,3.83
2019-05-18T19:52:33.130Z,4.17
2019-05-18T19:57:35.750Z,4.30
2019-05-18T20:02:38.109Z,3.92
2019-05-18T20:07:40.430Z,4.92
2019-05-18T20:12:42.724Z,4.55
2019-05-18T20:17:45.069Z,5.20
2019-05-18T20:22:47.362Z,4.47
2019-05-18T20:27:49.630Z,4.55
2019-05-18T20:32:52.435Z,5.92
2019-05-18T20:37:54.906Z,6.12
2019-05-18T20:42:57.199Z,6.00
2019-05-18T20:47:59.502Z,6.50
2019-05-18T20:53:01.833Z,5.12
2019-05-18T20:58:04.225Z,5.58
2019-05-18T21:03:06.564Z,6.20
2019-05-18T21:08:08.911Z,4.15
2019-05-18T21:13:11.188Z,4.60
2019-05-18T21:18:13.515Z,4.45
2019-05-18T21:23:15.852Z,4.47
2019-05-18T21:28:18.162Z,4.50
2019-05-18T21:33:20.468Z,4.65
2019-05-18T21:38:22.798Z,4.45
2019-05-18T21:43:25.110Z,4.72
2019-05-18T21:48:27.467Z,5.17
2019-05-18T21:53:29.747Z,5.27
2019-05-18T21:58:32.020Z,5.87
2019-05-18T22:03:34.306Z,5.50
2019-05-18T22:08:36.579Z,5.33
2019-05-18T22:13:38.933Z,5.10
2019-05-18T22:18:41.198Z,5.17
2019-05-18T22:23:43.455Z,5.83
2019-05-18T22:28:45.749Z,5.50
2019-05-18T22:33:48.019Z,6.42
2019-05-18T22:38:50.272Z,5.60
2019-05-18T22:43:52.827Z,5.90
2019-05-18T22:48:55.628Z,7.40
2019-05-18T22:53:57.885Z,8.80
2019-05-18T22:59:00.169Z,6.25
2019-05-18T23:04:02.509Z,6.33
2019-05-18T23:09:05.349Z,5.58
2019-05-18T23:14:07.625Z,6.40
2019-05-18T23:19:09.918Z,7.17
2019-05-18T23:24:12.209Z,6.53
2019-05-18T23:29:14.564Z,7.30
2019-05-18T23:34:16.859Z,7.10
2019-05-18T23:39:19.237Z,7.50
2019-05-18T23:44:21.589Z,7.53
2019-05-18T23:49:23.864Z,8.53
2019-05-18T23:54:26.147Z,8.40
2019-05-18T23:59:28.400Z,7.83
